Time;durP1;ratioP1;P1;durP2;ratioP2;P2;SDS_P1;SDS_P2;PMS_P1;PMS_P2;Temp;Humidity;BMP_temperature;BMP_pressure;BME280_temperature;BME280_humidity;BME280_pressure;Samples;Min_cycle;Max_cycle;Signal;HPM_P1;HPM_P2
2023/02/18 00:00:17;;;;;;;1.90;1.80;;;;;;;12.86;58.85;98979.48;145056;1254;96664;-88
2023/02/18 00:03:40;;;;;;;3.30;1.00;;;;;;;12.86;58.80;98981.22;145061;1257;97855;-76
2023/02/18 00:07:02;;;;;;;2.00;1.30;;;;;;;12.84;58.76;98982.48;145167;1256;96954;-79
2023/02/18 00:10:25;;;;;;;1.70;1.00;;;;;;;12.82;58.68;98986.14;145205;1256;97979;-77
2023/02/18 00:13:59;;;;;;;3.60;1.20;;;;;;;12.80;58.54;98998.02;145219;1256;96660;-77
2023/02/18 00:17:21;;;;;;;2.60;1.00;;;;;;;12.75;58.30;99004.50;145345;1256;96657;-75
2023/02/18 00:20:43;;;;;;;1.90;0.80;;;;;;;12.73;58.19;99026.30;145176;1254;97486;-77
2023/02/18 00:24:06;;;;;;;4.00;1.10;;;;;;;12.71;58.12;99019.34;145500;1251;96689;-77
2023/02/18 00:27:29;;;;;;;2.30;0.80;;;;;;;12.69;58.02;99020.91;145446;1251;109687;-76
2023/02/18 00:30:51;;;;;;;6.40;2.90;;;;;;;12.68;57.91;99020.23;144775;1260;110669;-76
2023/02/18 00:34:13;;;;;;;2.40;1.00;;;;;;;12.66;57.74;99023.74;145060;1254;96666;-78
2023/02/18 00:37:35;;;;;;;3.80;1.10;;;;;;;12.65;57.68;99025.32;145258;1257;98036;-75
2023/02/18 00:40:57;;;;;;;3.20;0.90;;;;;;;12.60;57.53;99026.20;145017;1258;102194;-77
2023/02/18 00:44:19;;;;;;;1.20;0.70;;;;;;;12.57;57.34;99023.97;145072;1259;96705;-77
2023/02/18 00:47:44;;;;;;;2.70;1.20;;;;;;;12.56;57.18;99020.32;145032;1258;96609;-85
2023/02/18 00:51:06;;;;;;;3.50;1.00;;;;;;;12.55;57.05;99018.04;144999;1257;107446;-76
2023/02/18 00:54:28;;;;;;;3.30;1.30;;;;;;;12.53;56.86;99024.00;144890;1268;96731;-76
2023/02/18 00:57:50;;;;;;;4.60;1.30;;;;;;;12.50;56.75;99032.73;145274;1259;98006;-77
2023/02/18 01:01:12;;;;;;;2.10;1.00;;;;;;;12.47;56.68;99027.34;145234;1257;96774;-77
2023/02/18 01:04:34;;;;;;;2.30;0.90;;;;;;;12.47;56.66;99033.96;145380;1254;97823;-78
2023/02/18 01:07:56;;;;;;;4.70;1.70;;;;;;;12.45;56.26;99030.31;145377;1254;97914;-77
2023/02/18 01:11:21;;;;;;;2.40;0.90;;;;;;;12.44;56.41;99035.89;145015;1255;96741;-84
2023/02/18 01:14:45;;;;;;;2.40;0.90;;;;;;;12.43;56.24;99034.16;144951;1258;96667;-77
2023/02/18 01:18:07;;;;;;;3.30;1.50;;;;;;;12.42;55.96;99041.30;144913;1260;96721;-76
2023/02/18 01:21:29;;;;;;;4.50;1.10;;;;;;;12.38;55.95;99038.36;145258;1260;96664;-76
2023/02/18 01:24:51;;;;;;;3.50;0.70;;;;;;;12.36;55.80;99038.91;144983;1259;109067;-82
2023/02/18 01:28:14;;;;;;;4.30;1.00;;;;;;;12.35;55.74;99048.15;144829;1254;97862;-77
2023/02/18 01:31:40;;;;;;;3.60;1.10;;;;;;;12.31;55.66;99041.72;145207;1258;97170;-79
2023/02/18 01:35:03;;;;;;;2.00;1.00;;;;;;;12.30;55.55;99024.64;145075;1258;110182;-78
2023/02/18 01:38:28;;;;;;;3.30;1.20;;;;;;;12.28;55.30;99034.08;145394;1259;97441;-77
2023/02/18 01:41:50;;;;;;;3.70;0.80;;;;;;;12.28;55.34;99028.48;145038;1265;109759;-78
2023/02/18 01:45:34;;;;;;;3.50;1.40;;;;;;;12.27;55.23;99027.63;145034;1256;97844;-77
2023/02/18 01:48:57;;;;;;;2.80;0.90;;;;;;;12.26;55.26;99023.63;145212;1257;109724;-77
2023/02/18 01:52:24;;;;;;;2.80;1.00;;;;;;;12.26;55.08;99025.19;145463;1252;97464;-76
2023/02/18 01:55:47;;;;;;;5.10;1.30;;;;;;;12.26;55.08;99021.35;145267;1259;110149;-77
2023/02/18 01:59:13;;;;;;;4.90;0.80;;;;;;;12.25;54.88;99023.62;145449;1258;109692;-79
2023/02/18 02:02:43;;;;;;;4.30;1.30;;;;;;;12.22;54.68;99026.95;145385;1272;110311;-76
2023/02/18 02:06:14;;;;;;;5.00;1.10;;;;;;;12.20;54.79;99023.13;145429;1259;109526;-76
2023/02/18 02:09:39;;;;;;;3.80;1.40;;;;;;;12.19;54.70;99012.85;145349;1257;110681;-76
2023/02/18 02:13:35;;;;;;;3.60;1.10;;;;;;;12.14;54.47;99017.23;145489;1259;109906;-76
2023/02/18 02:17:14;;;;;;;3.70;1.50;;;;;;;12.14;54.53;99014.10;145245;1256;111964;-76
2023/02/18 02:21:07;;;;;;;6.10;1.20;;;;;;;12.11;54.41;99019.34;145216;1257;108796;-76
2023/02/18 02:24:48;;;;;;;3.50;1.10;;;;;;;12.10;54.18;99001.05;145172;1257;111315;-78
2023/02/18 02:28:31;;;;;;;5.70;1.40;;;;;;;12.07;54.25;98998.80;145082;1260;110809;-77
2023/02/18 02:32:09;;;;;;;2.70;1.10;;;;;;;12.04;54.13;99001.77;145304;1257;108359;-76
2023/02/18 02:35:47;;;;;;;5.40;0.80;;;;;;;12.01;54.02;99000.05;145471;1251;109818;-76
2023/02/18 02:39:20;;;;;;;6.10;1.90;;;;;;;11.99;53.94;99000.41;145200;1257;109939;-77
2023/02/18 02:42:57;;;;;;;4.40;1.50;;;;;;;11.99;53.88;98997.10;145475;1257;110425;-78
2023/02/18 02:46:34;;;;;;;3.40;0.90;;;;;;;11.97;53.89;99002.33;145299;1257;110745;-76
2023/02/18 02:49:59;;;;;;;4.10;1.30;;;;;;;11.94;53.81;99008.95;145422;1257;110618;-76
2023/02/18 02:53:30;;;;;;;5.80;1.50;;;;;;;11.91;53.75;99022.02;145315;1255;109468;-77
2023/02/18 02:57:06;;;;;;;8.20;1.50;;;;;;;11.89;53.72;99020.13;145287;1251;109715;-77
2023/02/18 03:00:54;;;;;;;5.10;1.00;;;;;;;11.88;53.62;99026.73;145120;1251;109787;-77
2023/02/18 03:04:44;;;;;;;7.70;1.50;;;;;;;11.84;53.60;99033.70;145353;1257;110793;-77
2023/02/18 03:08:45;;;;;;;6.10;1.70;;;;;;;11.82;53.50;99035.79;145434;1252;109640;-77
2023/02/18 03:12:18;;;;;;;3.60;1.30;;;;;;;11.82;53.59;99046.92;145264;1256;110723;-77
2023/02/18 03:15:54;;;;;;;2.60;1.00;;;;;;;11.81;53.40;99043.61;145676;1251;112407;-78
2023/02/18 03:19:24;;;;;;;4.20;1.20;;;;;;;11.81;53.35;99047.09;145437;1255;109830;-78
2023/02/18 03:22:50;;;;;;;3.50;1.10;;;;;;;11.82;53.34;99053.36;145454;1257;110621;-79
2023/02/18 03:26:15;;;;;;;9.10;1.70;;;;;;;11.80;53.25;99057.02;145421;1257;96699;-76
2023/02/18 03:29:39;;;;;;;5.70;1.20;;;;;;;11.78;53.21;99056.34;145384;1257;110705;-78
2023/02/18 03:33:04;;;;;;;2.90;1.00;;;;;;;11.76;53.07;99056.67;145559;1256;97093;-77
2023/02/18 03:36:26;;;;;;;9.00;1.30;;;;;;;11.76;53.31;99049.19;145661;1256;110598;-77
2023/02/18 03:39:51;;;;;;;5.30;1.40;;;;;;;11.74;53.14;99055.98;145357;1251;96660;-78
2023/02/18 03:43:14;;;;;;;5.50;1.20;;;;;;;11.73;53.09;99060.69;145514;1255;110703;-80
2023/02/18 03:46:38;;;;;;;5.10;1.50;;;;;;;11.72;53.03;99071.14;145364;1273;96578;-78
2023/02/18 03:50:00;;;;;;;1.70;1.00;;;;;;;11.72;53.02;99076.18;145412;1256;97955;-78
2023/02/18 03:53:22;;;;;;;6.70;1.40;;;;;;;11.71;52.94;99083.15;145498;1255;96628;-78
2023/02/18 03:56:44;;;;;;;5.20;1.20;;;;;;;11.69;52.92;99083.85;145664;1254;102295;-79
2023/02/18 04:00:07;;;;;;;6.70;1.30;;;;;;;11.68;52.85;99083.68;145740;1251;96571;-78
2023/02/18 04:03:36;;;;;;;6.00;1.90;;;;;;;11.67;52.67;99079.31;145303;1257;102432;-78
2023/02/18 04:06:58;;;;;;;3.00;1.10;;;;;;;11.66;52.76;99086.13;145297;1257;96573;-79
2023/02/18 04:10:21;;;;;;;5.60;1.30;;;;;;;11.66;52.77;99095.34;145502;1264;97871;-78
2023/02/18 04:13:43;;;;;;;4.60;1.70;;;;;;;11.67;52.66;99082.45;145589;1257;108702;-79
2023/02/18 04:17:05;;;;;;;7.70;1.80;;;;;;;11.65;52.48;99101.60;145543;1257;97431;-78
2023/02/18 04:20:27;;;;;;;5.90;1.50;;;;;;;11.63;52.46;99109.25;145667;1251;96544;-76
2023/02/18 04:23:48;;;;;;;5.20;1.70;;;;;;;11.61;52.43;99097.61;145488;1255;96676;-78
2023/02/18 04:27:10;;;;;;;4.70;1.40;;;;;;;11.60;52.38;99100.73;145712;1255;97934;-78
2023/02/18 04:30:33;;;;;;;6.80;1.90;;;;;;;11.58;52.25;99099.70;145578;1255;96578;-76
2023/02/18 04:33:55;;;;;;;6.30;1.20;;;;;;;11.55;52.40;99105.96;145485;1257;97118;-76
2023/02/18 04:37:17;;;;;;;4.80;1.30;;;;;;;11.56;52.37;99107.36;145576;1251;96634;-79
2023/02/18 04:40:38;;;;;;;6.70;2.30;;;;;;;11.56;52.37;99103.17;145575;1257;97035;-77
2023/02/18 04:44:00;;;;;;;3.80;1.20;;;;;;;11.54;52.25;99097.80;145541;1251;110669;-77
2023/02/18 04:47:22;;;;;;;3.70;1.30;;;;;;;11.54;52.26;99102.48;145591;1251;96542;-78
2023/02/18 04:50:45;;;;;;;5.90;1.40;;;;;;;11.55;52.19;99106.14;145672;1257;96562;-76
2023/02/18 04:54:06;;;;;;;6.50;1.50;;;;;;;11.55;52.31;99099.19;145442;1257;101833;-79
2023/02/18 04:57:28;;;;;;;6.20;1.50;;;;;;;11.52;52.16;99102.14;145550;1255;97879;-79
2023/02/18 05:00:50;;;;;;;2.50;1.20;;;;;;;11.51;52.13;99101.11;145625;1251;97645;-78
2023/02/18 05:04:12;;;;;;;4.00;1.60;;;;;;;11.49;52.20;99103.19;145535;1257;108375;-79
2023/02/18 05:07:34;;;;;;;5.70;1.40;;;;;;;11.47;52.06;99102.48;145566;1251;96663;-77
2023/02/18 05:10:56;;;;;;;4.40;1.40;;;;;;;11.46;52.03;99106.14;145730;1255;96574;-77
2023/02/18 05:14:17;;;;;;;3.70;1.30;;;;;;;11.44;51.89;99106.33;145476;1263;96571;-78
2023/02/18 05:17:39;;;;;;;4.90;1.50;;;;;;;11.42;52.00;99108.42;145545;1256;96638;-77
2023/02/18 05:21:01;;;;;;;4.50;1.00;;;;;;;11.43;51.92;99111.19;145529;1251;97805;-76
2023/02/18 05:24:23;;;;;;;3.80;1.00;;;;;;;11.42;51.95;99115.02;145442;1256;146861;-76
2023/02/18 05:27:45;;;;;;;10.00;1.80;;;;;;;11.43;52.06;99132.41;145631;1257;96565;-78
2023/02/18 05:31:07;;;;;;;4.50;1.30;;;;;;;11.44;51.92;99132.94;145756;1257;97128;-78
2023/02/18 05:34:29;;;;;;;5.20;1.70;;;;;;;11.42;52.01;99128.94;145403;1257;109973;-77
2023/02/18 05:37:51;;;;;;;4.00;1.60;;;;;;;11.41;51.87;99125.80;145512;1266;96610;-77
2023/02/18 05:41:12;;;;;;;4.50;1.00;;;;;;;11.38;51.78;99141.45;145554;1257;96938;-80
2023/02/18 05:44:34;;;;;;;4.60;1.30;;;;;;;11.34;51.81;99146.16;145496;1257;101937;-77
2023/02/18 05:47:56;;;;;;;7.10;1.00;;;;;;;11.34;51.75;99147.91;145488;1257;96672;-78
2023/02/18 05:51:18;;;;;;;3.50;1.50;;;;;;;11.36;51.82;99150.85;145619;1256;96564;-78
2023/02/18 05:54:39;;;;;;;8.40;1.30;;;;;;;11.36;51.82;99145.80;145450;1257;107357;-78
2023/02/18 05:58:01;;;;;;;4.60;1.10;;;;;;;11.35;51.75;99147.90;145662;1251;96629;-78
2023/02/18 06:01:23;;;;;;;3.40;1.10;;;;;;;11.34;51.76;99158.52;145670;1257;96573;-80
2023/02/18 06:04:45;;;;;;;5.20;1.50;;;;;;;11.34;51.68;99163.04;145300;1256;97434;-77
2023/02/18 06:08:07;;;;;;;9.90;1.70;;;;;;;11.33;51.61;99163.02;145644;1257;96558;-77
2023/02/18 06:11:29;;;;;;;5.60;1.40;;;;;;;11.33;51.47;99167.38;145789;1256;96554;-76
2023/02/18 06:14:51;;;;;;;4.30;1.30;;;;;;;11.33;51.55;99172.95;145652;1251;97742;-79
2023/02/18 06:18:13;;;;;;;3.30;0.90;;;;;;;11.34;51.49;99166.33;145411;1256;97943;-77
2023/02/18 06:21:35;;;;;;;5.40;1.00;;;;;;;11.32;51.64;99185.46;145521;1260;96689;-76
2023/02/18 06:24:57;;;;;;;3.80;1.30;;;;;;;11.33;51.62;99181.11;145623;1264;110999;-76
2023/02/18 06:28:19;;;;;;;3.90;1.10;;;;;;;11.35;51.40;99172.08;145640;1252;96543;-79
2023/02/18 06:31:40;;;;;;;4.50;0.90;;;;;;;11.36;51.43;99169.98;145639;1254;96549;-77
2023/02/18 06:35:02;;;;;;;7.90;1.70;;;;;;;11.37;51.32;99184.08;145802;1257;102317;-77
2023/02/18 06:38:25;;;;;;;5.00;1.10;;;;;;;11.38;51.25;99180.26;145700;1257;96644;-78
2023/02/18 06:41:47;;;;;;;3.40;1.30;;;;;;;11.37;51.34;99197.98;145395;1257;97895;-76
2023/02/18 06:45:09;;;;;;;6.10;1.40;;;;;;;11.39;51.20;99208.95;145518;1257;107205;-75
2023/02/18 06:48:31;;;;;;;3.20;1.10;;;;;;;11.40;51.19;99204.79;145611;1257;96613;-78
2023/02/18 06:51:53;;;;;;;6.00;1.30;;;;;;;11.41;51.24;99220.44;145668;1251;96640;-79
2023/02/18 06:55:14;;;;;;;5.00;1.40;;;;;;;11.41;51.08;99221.32;145654;1257;97834;-77
2023/02/18 06:58:37;;;;;;;8.20;1.70;;;;;;;11.40;50.99;99219.58;145567;1255;97888;-77
2023/02/18 07:01:59;;;;;;;3.90;1.20;;;;;;;11.41;51.04;99220.27;145778;1256;97839;-76
2023/02/18 07:05:21;;;;;;;11.50;1.60;;;;;;;11.43;50.92;99228.45;145283;1257;96704;-76
2023/02/18 07:08:43;;;;;;;3.80;1.30;;;;;;;11.46;50.78;99223.75;145395;1256;96636;-77
2023/02/18 07:12:07;;;;;;;5.70;1.80;;;;;;;11.50;50.83;99220.63;145643;1257;97174;-76
2023/02/18 07:15:29;;;;;;;8.90;1.40;;;;;;;11.54;50.71;99215.41;145699;1256;96634;-79
2023/02/18 07:18:54;;;;;;;5.90;1.20;;;;;;;11.53;50.66;99227.77;145617;1252;109283;-78
2023/02/18 07:22:27;;;;;;;7.50;1.80;;;;;;;11.55;50.52;99221.50;145117;1260;110799;-79
2023/02/18 07:25:49;;;;;;;4.10;1.50;;;;;;;11.62;50.50;99221.67;145162;1266;96697;-76
2023/02/18 07:29:10;;;;;;;4.20;1.30;;;;;;;11.71;50.33;99220.98;145735;1255;96660;-76
2023/02/18 07:32:32;;;;;;;5.60;1.20;;;;;;;11.80;50.35;99221.52;145625;1257;103098;-79
2023/02/18 07:35:56;;;;;;;6.40;1.30;;;;;;;11.92;50.18;99223.64;145711;1251;96539;-77
2023/02/18 07:39:19;;;;;;;4.80;1.40;;;;;;;12.02;50.02;99217.02;145651;1257;96552;-77
2023/02/18 07:42:41;;;;;;;6.70;1.30;;;;;;;12.17;49.91;99216.30;145743;1257;96685;-81
2023/02/18 07:46:05;;;;;;;4.00;1.10;;;;;;;12.36;49.80;99216.77;145483;1251;97343;-76
2023/02/18 07:49:31;;;;;;;3.20;1.30;;;;;;;12.50;49.52;99216.41;145602;1260;102272;-77
2023/02/18 07:52:53;;;;;;;7.20;2.90;;;;;;;12.71;49.46;99223.81;145866;1256;96571;-77
2023/02/18 07:56:17;;;;;;;5.20;1.60;;;;;;;12.97;49.28;99229.48;145249;1260;97533;-75
2023/02/18 07:59:40;;;;;;;6.50;1.60;;;;;;;13.05;48.92;99229.95;145552;1255;97842;-75
2023/02/18 08:03:01;;;;;;;4.30;1.30;;;;;;;13.09;48.68;99226.80;145616;1257;96548;-76
2023/02/18 08:06:30;;;;;;;3.10;1.40;;;;;;;13.13;48.56;99236.55;145593;1256;107191;-76
2023/02/18 08:09:53;;;;;;;6.90;1.70;;;;;;;13.18;48.47;99234.07;145660;1258;107498;-75
2023/02/18 08:13:15;;;;;;;5.60;1.30;;;;;;;13.17;48.34;99227.98;145553;1254;96967;-77
2023/02/18 08:16:40;;;;;;;5.70;1.60;;;;;;;13.17;48.48;99238.27;145558;1256;97457;-86
2023/02/18 08:20:02;;;;;;;5.80;1.50;;;;;;;13.15;48.13;99238.81;145660;1254;96713;-74
2023/02/18 08:23:25;;;;;;;5.70;1.60;;;;;;;13.15;48.12;99233.40;145605;1261;96596;-76
2023/02/18 08:26:47;;;;;;;7.50;1.60;;;;;;;13.18;48.11;99235.48;145437;1251;97479;-74
2023/02/18 08:30:21;;;;;;;3.80;1.80;;;;;;;13.33;48.09;99239.26;145482;1257;97836;-74
2023/02/18 08:33:43;;;;;;;27.70;3.30;;;;;;;13.50;48.22;99235.67;145573;1257;96597;-82
2023/02/18 08:37:05;;;;;;;8.90;2.10;;;;;;;13.75;55.59;99233.39;146055;1255;96644;-78
2023/02/18 08:40:27;;;;;;;5.70;2.60;;;;;;;14.39;55.30;99232.81;145514;1257;109654;-77
2023/02/18 08:43:48;;;;;;;6.10;2.40;;;;;;;14.51;51.95;99236.55;145541;1259;96654;-76
2023/02/18 08:47:13;;;;;;;20.60;3.90;;;;;;;14.07;49.35;99235.57;145566;1256;96682;-84
2023/02/18 08:50:55;;;;;;;8.00;2.60;;;;;;;13.38;47.79;99239.73;145694;1254;102007;-78
2023/02/18 08:54:20;;;;;;;6.50;1.90;;;;;;;12.91;48.08;99254.77;145608;1254;102736;-80
2023/02/18 08:57:44;;;;;;;11.20;2.70;;;;;;;12.67;47.52;99251.21;145677;1255;101331;-79
2023/02/18 09:01:08;;;;;;;8.70;1.50;;;;;;;12.35;47.11;99256.34;145465;1257;96626;-76
2023/02/18 09:04:30;;;;;;;6.90;2.40;;;;;;;12.13;47.15;99253.05;145215;1256;97427;-76
2023/02/18 09:07:52;;;;;;;7.80;2.10;;;;;;;12.18;46.94;99260.54;145450;1257;96545;-75
2023/02/18 09:11:14;;;;;;;6.50;2.00;;;;;;;12.11;46.23;99264.02;145327;1261;107204;-77
2023/02/18 09:14:36;;;;;;;8.80;1.90;;;;;;;11.76;45.91;99270.96;145428;1257;96650;-80
2023/02/18 09:17:58;;;;;;;7.90;2.00;;;;;;;11.56;47.13;99277.36;146035;1254;96618;-76
2023/02/18 09:21:26;;;;;;;8.70;2.50;;;;;;;11.51;47.32;99278.40;145565;1256;96549;-76
2023/02/18 09:24:50;;;;;;;9.10;3.40;;;;;;;11.51;46.97;99286.05;145188;1257;97898;-77
2023/02/18 09:28:13;;;;;;;9.10;3.00;;;;;;;11.49;46.83;99283.27;145930;1256;96579;-84
2023/02/18 09:31:36;;;;;;;8.90;3.70;;;;;;;11.54;46.61;99282.91;145552;1256;96632;-83
2023/02/18 09:34:58;;;;;;;13.10;3.70;;;;;;;11.53;47.85;99287.10;145980;1254;97085;-80
2023/02/18 09:38:23;;;;;;;7.80;1.70;;;;;;;11.55;46.47;99293.36;146014;1254;97807;-79
2023/02/18 09:41:48;;;;;;;5.90;2.30;;;;;;;11.35;45.88;99294.71;145985;1254;96632;-81
2023/02/18 09:45:12;;;;;;;6.60;2.00;;;;;;;11.17;45.92;99296.56;145869;1255;96550;-80
2023/02/18 09:48:35;;;;;;;8.30;2.00;;;;;;;11.05;45.82;99298.77;145754;1254;96654;-81
2023/02/18 09:52:22;;;;;;;13.70;2.00;;;;;;;10.93;47.20;99301.50;145777;1254;96576;-80
2023/02/18 09:55:45;;;;;;;13.10;2.60;;;;;;;11.09;48.18;99302.27;145888;1255;96676;-80
2023/02/18 09:59:23;;;;;;;5.20;2.50;;;;;;;11.01;46.61;99312.32;145719;1251;97745;-82
2023/02/18 10:02:54;;;;;;;8.20;3.70;;;;;;;10.86;46.53;99316.23;145424;1257;96549;-81
2023/02/18 10:06:22;;;;;;;7.50;2.30;;;;;;;10.74;46.56;99318.95;145641;1254;96491;-81
2023/02/18 10:09:46;;;;;;;8.30;2.40;;;;;;;10.54;46.54;99321.95;145580;1252;97821;-81
2023/02/18 10:13:27;;;;;;;5.80;1.80;;;;;;;10.44;46.64;99330.92;145572;1267;96738;-81
2023/02/18 10:16:50;;;;;;;8.60;1.90;;;;;;;10.33;46.67;99329.45;145874;1257;96793;-81
2023/02/18 10:20:16;;;;;;;7.80;2.00;;;;;;;10.22;46.72;99327.94;145598;1251;96701;-81
2023/02/18 10:24:00;;;;;;;9.90;2.10;;;;;;;10.22;46.74;99328.63;145692;1251;97448;-81
2023/02/18 10:27:27;;;;;;;7.20;2.20;;;;;;;10.23;46.94;99335.07;145658;1251;96638;-81
2023/02/18 10:31:03;;;;;;;6.50;2.30;;;;;;;10.19;46.83;99329.46;145452;1251;96558;-80
2023/02/18 10:34:47;;;;;;;9.10;1.70;;;;;;;10.30;46.82;99331.16;145310;1257;96604;-80
2023/02/18 10:38:30;;;;;;;13.30;2.70;;;;;;;10.40;46.62;99323.08;145242;1251;96548;-81
2023/02/18 10:42:30;;;;;;;8.90;2.10;;;;;;;10.51;46.41;99312.55;145420;1257;96716;-80
2023/02/18 10:46:03;;;;;;;7.80;2.70;;;;;;;10.56;48.50;99319.19;145538;1253;96629;-80
2023/02/18 10:49:44;;;;;;;8.30;2.10;;;;;;;10.68;47.37;99305.89;145330;1253;96569;-80
2023/02/18 10:53:33;;;;;;;9.00;2.20;;;;;;;10.68;46.71;99298.23;145414;1251;97843;-86
2023/02/18 10:56:59;;;;;;;8.40;2.20;;;;;;;10.61;46.80;99289.69;145331;1258;97480;-83
2023/02/18 11:00:24;;;;;;;7.30;2.30;;;;;;;10.62;47.11;99293.52;145368;1257;97853;-82
2023/02/18 11:03:48;;;;;;;7.70;1.90;;;;;;;10.52;46.97;99290.50;145459;1257;96644;-82
2023/02/18 11:07:31;;;;;;;8.30;3.00;;;;;;;10.39;46.96;99294.92;145455;1251;97430;-84
2023/02/18 11:10:53;;;;;;;11.70;2.80;;;;;;;10.37;47.68;99293.17;145332;1251;97824;-82
2023/02/18 11:14:20;;;;;;;8.20;2.50;;;;;;;10.40;47.28;99294.59;145289;1251;97455;-79
2023/02/18 11:17:47;;;;;;;10.50;2.20;;;;;;;10.21;47.68;99290.08;145386;1258;96574;-78
2023/02/18 11:21:23;;;;;;;10.90;2.60;;;;;;;10.28;48.22;99291.20;145470;1255;97879;-81
2023/02/18 11:24:47;;;;;;;11.30;3.00;;;;;;;10.34;48.16;99294.38;145559;1255;97949;-81
2023/02/18 11:28:15;;;;;;;9.80;2.90;;;;;;;10.42;48.17;99281.05;145356;1254;96609;-78
2023/02/18 11:31:44;;;;;;;5.90;2.50;;;;;;;10.57;49.09;99277.67;145453;1256;96631;-79
2023/02/18 11:35:06;;;;;;;17.90;4.80;;;;;;;10.71;48.54;99281.23;145436;1254;97451;-80
2023/02/18 11:38:41;;;;;;;13.50;2.50;;;;;;;10.77;48.95;99273.60;145359;1257;96587;-79
2023/02/18 11:42:06;;;;;;;8.30;2.60;;;;;;;10.80;48.46;99275.19;145368;1253;97836;-79
2023/02/18 11:45:32;;;;;;;12.50;4.00;;;;;;;10.78;48.29;99276.91;145452;1251;96560;-79
2023/02/18 11:48:54;;;;;;;7.80;2.60;;;;;;;10.82;48.73;99271.38;145488;1256;97336;-80
2023/02/18 11:52:26;;;;;;;14.90;3.00;;;;;;;10.93;48.60;99268.64;145306;1258;96555;-79
2023/02/18 11:55:55;;;;;;;8.60;1.90;;;;;;;11.11;48.69;99258.27;145337;1256;97930;-84
2023/02/18 11:59:17;;;;;;;13.70;2.80;;;;;;;11.48;49.90;99264.11;145569;1265;96650;-77
2023/02/18 12:02:39;;;;;;;6.50;2.20;;;;;;;11.95;50.83;99257.92;145483;1251;96819;-81
2023/02/18 12:06:05;;;;;;;12.10;2.70;;;;;;;12.19;48.97;99247.48;145348;1251;97537;-79
2023/02/18 12:09:29;;;;;;;12.10;3.00;;;;;;;12.15;48.32;99256.36;145393;1257;109788;-79
2023/02/18 12:13:20;;;;;;;6.80;2.20;;;;;;;12.15;47.41;99249.21;145386;1254;109764;-81
2023/02/18 12:17:16;;;;;;;10.90;2.20;;;;;;;12.15;46.72;99250.79;145607;1251;108723;-79
2023/02/18 12:20:48;;;;;;;9.40;2.50;;;;;;;12.22;46.23;99238.25;145660;1250;110900;-80
2023/02/18 12:24:17;;;;;;;8.00;2.90;;;;;;;12.11;45.42;99241.73;145320;1250;109303;-81
2023/02/18 12:28:03;;;;;;;8.60;2.90;;;;;;;11.91;45.46;99246.96;145554;1251;109379;-83
2023/02/18 12:32:03;;;;;;;10.20;3.10;;;;;;;11.70;45.29;99246.92;145543;1252;110538;-85
2023/02/18 12:36:16;;;;;;;14.70;2.40;;;;;;;11.80;49.05;99235.45;145452;1255;109534;-79
2023/02/18 12:40:02;;;;;;;9.00;3.00;;;;;;;12.09;48.06;99222.05;145455;1252;111344;-77
2023/02/18 12:43:40;;;;;;;8.40;2.10;;;;;;;12.27;47.51;99213.66;145334;1258;110919;-78
2023/02/18 12:47:12;;;;;;;10.50;2.60;;;;;;;12.39;47.17;99219.92;145264;1256;108167;-77
2023/02/18 12:50:54;;;;;;;8.80;2.70;;;;;;;12.48;46.92;99213.09;145418;1256;108408;-77
2023/02/18 12:54:53;;;;;;;10.30;3.20;;;;;;;12.76;49.61;99216.82;145510;1256;110393;-78
2023/02/18 12:58:24;;;;;;;7.00;2.50;;;;;;;13.28;51.10;99218.68;145153;1257;109006;-78
2023/02/18 13:02:13;;;;;;;7.20;2.70;;;;;;;13.63;51.48;99216.54;145286;1254;109852;-78
2023/02/18 13:05:51;;;;;;;10.20;2.90;;;;;;;14.05;52.23;99208.68;145455;1253;109872;-77
2023/02/18 13:09:28;;;;;;;10.70;2.60;;;;;;;14.38;52.30;99206.60;145498;1255;109800;-78
2023/02/18 13:13:00;;;;;;;10.90;3.00;;;;;;;14.62;52.32;99198.70;145231;1254;109301;-78
2023/02/18 13:16:22;;;;;;;7.00;2.80;;;;;;;14.71;52.16;99201.02;145357;1255;110225;-76
2023/02/18 13:20:06;;;;;;;12.70;2.40;;;;;;;14.74;52.13;99193.45;145377;1256;96541;-78
2023/02/18 13:23:31;;;;;;;19.30;3.60;;;;;;;14.68;52.42;99194.23;145629;1256;109822;-78
2023/02/18 13:27:20;;;;;;;14.50;4.10;;;;;;;14.61;52.49;99191.70;145717;1254;110133;-76
2023/02/18 13:30:51;;;;;;;15.30;3.30;;;;;;;14.59;54.30;99202.39;145272;1256;108310;-76
2023/02/18 13:34:45;;;;;;;16.70;2.70;;;;;;;14.61;54.50;99195.36;145608;1257;110445;-77
2023/02/18 13:38:29;;;;;;;9.90;3.40;;;;;;;14.54;54.65;99197.37;144765;1267;110712;-76
2023/02/18 13:42:10;;;;;;;16.30;3.30;;;;;;;14.45;55.18;99198.84;144461;1266;109853;-76
2023/02/18 13:45:32;;;;;;;10.70;3.00;;;;;;;14.38;55.29;99201.72;144353;1265;110275;-77
2023/02/18 13:49:03;;;;;;;12.20;3.50;;;;;;;14.26;55.07;99199.57;144853;1260;96734;-78
2023/02/18 13:52:26;;;;;;;9.40;3.10;;;;;;;14.21;56.19;99201.36;144452;1263;109990;-76
2023/02/18 13:55:53;;;;;;;22.10;3.00;;;;;;;14.22;56.42;99200.31;144668;1274;98017;-79
2023/02/18 13:59:44;;;;;;;7.70;2.80;;;;;;;14.18;56.05;99200.52;144790;1261;110823;-76
2023/02/18 14:03:41;;;;;;;9.90;3.20;;;;;;;14.12;56.21;99203.90;144636;1261;110642;-79
2023/02/18 14:07:22;;;;;;;7.70;2.70;;;;;;;14.11;56.67;99203.23;144206;1267;109679;-76
2023/02/18 14:11:13;;;;;;;9.60;2.40;;;;;;;14.03;56.31;99194.90;144203;1267;109770;-83
2023/02/18 14:14:36;;;;;;;8.40;2.90;;;;;;;14.12;56.56;99190.80;144140;1267;108843;-77
2023/02/18 14:18:13;;;;;;;7.90;2.60;;;;;;;13.99;55.28;99187.08;144887;1263;110916;-79
2023/02/18 14:21:38;;;;;;;6.20;2.20;;;;;;;13.74;54.68;99185.03;144815;1260;110602;-76
2023/02/18 14:25:15;;;;;;;8.30;2.00;;;;;;;13.50;54.20;99192.38;144841;1259;110756;-78
2023/02/18 14:28:43;;;;;;;4.50;2.30;;;;;;;13.27;53.64;99181.72;144853;1264;109949;-83
2023/02/18 14:32:10;;;;;;;7.00;2.20;;;;;;;13.10;53.57;99182.84;144598;1264;109481;-78
2023/02/18 14:35:41;;;;;;;6.70;2.70;;;;;;;12.97;53.50;99174.01;144860;1260;109785;-76
2023/02/18 14:39:40;;;;;;;6.00;2.00;;;;;;;12.83;53.37;99172.70;144933;1259;109792;-80
2023/02/18 14:43:14;;;;;;;9.60;2.90;;;;;;;12.68;53.43;99165.61;145377;1254;110725;-75
2023/02/18 14:46:55;;;;;;;12.70;3.20;;;;;;;12.58;53.62;99152.59;145939;1251;110633;-77
2023/02/18 14:50:21;;;;;;;11.30;2.70;;;;;;;12.55;53.64;99150.33;145914;1251;109698;-76
2023/02/18 14:53:46;;;;;;;8.50;2.40;;;;;;;12.48;53.58;99151.94;145340;1251;109810;-77
2023/02/18 14:57:16;;;;;;;5.30;2.20;;;;;;;12.39;53.57;99156.84;145831;1251;96574;-76
2023/02/18 15:00:41;;;;;;;7.60;2.70;;;;;;;12.29;53.35;99157.74;145564;1255;110392;-78
2023/02/18 15:04:03;;;;;;;9.20;4.00;;;;;;;12.19;53.06;99154.98;145499;1255;108837;-78
2023/02/18 15:07:26;;;;;;;11.40;2.30;;;;;;;12.13;53.25;99156.21;145384;1257;96631;-79
2023/02/18 15:11:04;;;;;;;6.90;2.50;;;;;;;12.14;53.45;99158.99;145287;1256;97843;-77
2023/02/18 15:14:33;;;;;;;4.70;2.40;;;;;;;12.15;53.81;99177.11;145726;1256;103636;-75
2023/02/18 15:17:55;;;;;;;;;;;;;;;12.15;53.96;99180.25;145571;1253;102866;-75
2023/02/18 15:21:29;;;;;;;7.80;2.90;;;;;;;12.11;53.94;99176.26;145293;1253;97391;-77
2023/02/18 15:24:53;;;;;;;3.90;2.00;;;;;;;12.02;54.17;99174.69;145414;1256;102175;-75
2023/02/18 15:28:25;;;;;;;5.30;1.80;;;;;;;11.94;54.05;99179.58;145290;1256;100964;-77
2023/02/18 15:31:48;;;;;;;6.40;1.70;;;;;;;11.81;53.72;99175.06;145857;1253;101862;-77
2023/02/18 15:35:16;;;;;;;4.10;1.40;;;;;;;11.62;53.10;99179.73;145851;1251;96584;-77
2023/02/18 15:38:43;;;;;;;4.00;1.00;;;;;;;11.41;52.76;99180.61;145431;1251;102454;-76
2023/02/18 15:42:22;;;;;;;4.50;1.20;;;;;;;11.20;52.43;99171.19;145213;1253;102178;-77
2023/02/18 15:45:45;;;;;;;2.10;1.10;;;;;;;10.99;52.35;99172.70;145481;1254;101052;-77
2023/02/18 15:49:07;;;;;;;2.40;1.20;;;;;;;10.82;52.51;99171.62;145905;1251;96567;-77
2023/02/18 15:52:32;;;;;;;5.10;1.40;;;;;;;10.68;52.60;99170.87;145799;1251;97828;-76
2023/02/18 15:55:55;;;;;;;2.80;1.30;;;;;;;10.55;53.00;99165.96;145366;1258;107124;-78
2023/02/18 15:59:42;;;;;;;4.90;1.50;;;;;;;10.41;53.09;99166.06;145244;1251;96532;-75
2023/02/18 16:03:15;;;;;;;4.40;1.80;;;;;;;10.27;53.24;99171.55;145764;1254;108650;-77